sensor_id;sensor_type;location;lat;lon;timestamp;temperature;humidity
21259;DHT22;10787;53.364;-1.480;2023-12-14T00:01:17;1.70;99.90
21259;DHT22;10787;53.364;-1.480;2023-12-14T00:04:01;1.60;99.90
21259;DHT22;10787;53.364;-1.480;2023-12-14T00:06:48;1.50;99.90
21259;DHT22;10787;53.364;-1.480;2023-12-14T00:09:32;1.50;99.90
21259;DHT22;10787;53.364;-1.480;2023-12-14T00:12:16;1.60;99.90
21259;DHT22;10787;53.364;-1.480;2023-12-14T00:15:01;1.60;99.90
21259;DHT22;10787;53.364;-1.480;2023-12-14T00:17:46;1.50;99.90
21259;DHT22;10787;53.364;-1.480;2023-12-14T00:20:30;1.50;99.90
21259;DHT22;10787;53.364;-1.480;2023-12-14T00:23:14;1.50;99.90
21259;DHT22;10787;53.364;-1.480;2023-12-14T00:25:58;1.60;99.90
21259;DHT22;10787;53.364;-1.480;2023-12-14T00:28:43;1.60;99.90
21259;DHT22;10787;53.364;-1.480;2023-12-14T00:31:28;1.60;99.90
21259;DHT22;10787;53.364;-1.480;2023-12-14T00:34:12;1.50;99.90
21259;DHT22;10787;53.364;-1.480;2023-12-14T00:36:56;1.40;99.90
21259;DHT22;10787;53.364;-1.480;2023-12-14T00:39:40;1.40;99.90
21259;DHT22;10787;53.364;-1.480;2023-12-14T00:42:25;1.40;99.90
21259;DHT22;10787;53.364;-1.480;2023-12-14T00:45:10;1.40;99.90
21259;DHT22;10787;53.364;-1.480;2023-12-14T00:47:54;1.40;99.90
21259;DHT22;10787;53.364;-1.480;2023-12-14T00:50:38;1.40;99.90
21259;DHT22;10787;53.364;-1.480;2023-12-14T00:53:22;1.40;99.90
21259;DHT22;10787;53.364;-1.480;2023-12-14T00:56:08;1.40;99.90
21259;DHT22;10787;53.364;-1.480;2023-12-14T00:58:55;1.40;99.90
21259;DHT22;10787;53.364;-1.480;2023-12-14T01:01:40;1.40;99.90
21259;DHT22;10787;53.364;-1.480;2023-12-14T01:04:24;1.40;99.90
21259;DHT22;10787;53.364;-1.480;2023-12-14T01:07:09;1.30;99.90
21259;DHT22;10787;53.364;-1.480;2023-12-14T01:09:53;1.30;99.90
21259;DHT22;10787;53.364;-1.480;2023-12-14T01:12:37;1.30;99.90
21259;DHT22;10787;53.364;-1.480;2023-12-14T01:15:22;1.30;99.90
21259;DHT22;10787;53.364;-1.480;2023-12-14T01:18:06;1.30;99.90
21259;DHT22;10787;53.364;-1.480;2023-12-14T01:20:51;1.30;99.90
21259;DHT22;10787;53.364;-1.480;2023-12-14T01:23:35;1.30;99.90
21259;DHT22;10787;53.364;-1.480;2023-12-14T01:26:20;1.30;99.90
21259;DHT22;10787;53.364;-1.480;2023-12-14T01:29:04;1.30;99.90
21259;DHT22;10787;53.364;-1.480;2023-12-14T01:31:48;1.30;99.90
21259;DHT22;10787;53.364;-1.480;2023-12-14T01:34:33;1.30;99.90
21259;DHT22;10787;53.364;-1.480;2023-12-14T01:37:17;1.30;99.90
21259;DHT22;10787;53.364;-1.480;2023-12-14T01:40:01;1.20;99.90
21259;DHT22;10787;53.364;-1.480;2023-12-14T01:42:46;1.20;99.90
21259;DHT22;10787;53.364;-1.480;2023-12-14T01:45:30;1.20;99.90
21259;DHT22;10787;53.364;-1.480;2023-12-14T01:48:15;1.30;99.90
21259;DHT22;10787;53.364;-1.480;2023-12-14T01:50:59;1.40;99.90
21259;DHT22;10787;53.364;-1.480;2023-12-14T01:53:43;1.40;99.90
21259;DHT22;10787;53.364;-1.480;2023-12-14T01:56:28;1.50;99.90
21259;DHT22;10787;53.364;-1.480;2023-12-14T01:59:13;1.50;99.90
21259;DHT22;10787;53.364;-1.480;2023-12-14T02:01:58;1.50;99.90
21259;DHT22;10787;53.364;-1.480;2023-12-14T02:04:43;1.50;99.90
21259;DHT22;10787;53.364;-1.480;2023-12-14T02:07:28;1.60;99.90
21259;DHT22;10787;53.364;-1.480;2023-12-14T02:10:12;1.60;99.90
21259;DHT22;10787;53.364;-1.480;2023-12-14T02:12:56;1.70;99.90
21259;DHT22;10787;53.364;-1.480;2023-12-14T02:15:41;1.80;99.90
21259;DHT22;10787;53.364;-1.480;2023-12-14T02:18:26;1.80;99.90
21259;DHT22;10787;53.364;-1.480;2023-12-14T02:21:11;1.90;99.90
21259;DHT22;10787;53.364;-1.480;2023-12-14T02:23:55;1.90;99.90
21259;DHT22;10787;53.364;-1.480;2023-12-14T02:26:39;1.90;99.90
21259;DHT22;10787;53.364;-1.480;2023-12-14T02:29:24;2.00;99.90
21259;DHT22;10787;53.364;-1.480;2023-12-14T02:32:08;2.00;99.90
21259;DHT22;10787;53.364;-1.480;2023-12-14T02:34:52;2.00;99.90
21259;DHT22;10787;53.364;-1.480;2023-12-14T02:37:37;2.10;99.90
21259;DHT22;10787;53.364;-1.480;2023-12-14T02:40:21;2.10;99.90
21259;DHT22;10787;53.364;-1.480;2023-12-14T02:43:06;2.10;99.90
21259;DHT22;10787;53.364;-1.480;2023-12-14T02:45:50;2.10;99.90
21259;DHT22;10787;53.364;-1.480;2023-12-14T02:48:34;2.20;99.90
21259;DHT22;10787;53.364;-1.480;2023-12-14T02:51:18;2.20;99.90
21259;DHT22;10787;53.364;-1.480;2023-12-14T02:54:03;2.20;99.90
21259;DHT22;10787;53.364;-1.480;2023-12-14T02:56:47;2.30;99.90
21259;DHT22;10787;53.364;-1.480;2023-12-14T02:59:32;2.40;99.90
21259;DHT22;10787;53.364;-1.480;2023-12-14T03:02:16;2.40;99.90
21259;DHT22;10787;53.364;-1.480;2023-12-14T03:05:00;2.50;99.90
21259;DHT22;10787;53.364;-1.480;2023-12-14T03:07:44;2.50;99.90
21259;DHT22;10787;53.364;-1.480;2023-12-14T03:10:29;2.50;99.90
21259;DHT22;10787;53.364;-1.480;2023-12-14T03:13:13;2.50;99.90
21259;DHT22;10787;53.364;-1.480;2023-12-14T03:15:57;2.50;99.90
21259;DHT22;10787;53.364;-1.480;2023-12-14T03:18:41;2.60;99.90
21259;DHT22;10787;53.364;-1.480;2023-12-14T03:21:25;2.60;99.90
21259;DHT22;10787;53.364;-1.480;2023-12-14T03:24:09;2.70;99.90
21259;DHT22;10787;53.364;-1.480;2023-12-14T03:26:53;2.70;99.90
21259;DHT22;10787;53.364;-1.480;2023-12-14T03:29:37;2.70;99.90
21259;DHT22;10787;53.364;-1.480;2023-12-14T03:32:21;2.80;99.90
21259;DHT22;10787;53.364;-1.480;2023-12-14T03:35:06;2.80;99.90
21259;DHT22;10787;53.364;-1.480;2023-12-14T03:37:52;2.80;99.90
21259;DHT22;10787;53.364;-1.480;2023-12-14T03:40:36;2.90;99.90
21259;DHT22;10787;53.364;-1.480;2023-12-14T03:43:20;2.90;99.90
21259;DHT22;10787;53.364;-1.480;2023-12-14T03:46:05;2.90;99.90
21259;DHT22;10787;53.364;-1.480;2023-12-14T03:48:50;3.00;99.90
21259;DHT22;10787;53.364;-1.480;2023-12-14T03:51:34;3.00;99.90
21259;DHT22;10787;53.364;-1.480;2023-12-14T03:54:18;3.00;99.90
21259;DHT22;10787;53.364;-1.480;2023-12-14T03:57:03;3.00;99.90
21259;DHT22;10787;53.364;-1.480;2023-12-14T03:59:47;3.00;99.90
21259;DHT22;10787;53.364;-1.480;2023-12-14T04:02:31;3.10;99.90
21259;DHT22;10787;53.364;-1.480;2023-12-14T04:05:16;3.20;99.90
21259;DHT22;10787;53.364;-1.480;2023-12-14T04:08:01;3.30;99.90
21259;DHT22;10787;53.364;-1.480;2023-12-14T04:10:45;3.30;99.90
21259;DHT22;10787;53.364;-1.480;2023-12-14T04:13:30;3.40;99.90
21259;DHT22;10787;53.364;-1.480;2023-12-14T04:16:14;3.50;99.90
21259;DHT22;10787;53.364;-1.480;2023-12-14T04:18:58;3.50;99.90
21259;DHT22;10787;53.364;-1.480;2023-12-14T04:21:42;3.60;99.90
21259;DHT22;10787;53.364;-1.480;2023-12-14T04:24:26;3.60;99.90
21259;DHT22;10787;53.364;-1.480;2023-12-14T04:27:11;3.60;99.90
21259;DHT22;10787;53.364;-1.480;2023-12-14T04:29:55;3.60;99.90
21259;DHT22;10787;53.364;-1.480;2023-12-14T04:32:39;3.70;99.90
21259;DHT22;10787;53.364;-1.480;2023-12-14T04:35:24;3.70;99.90
21259;DHT22;10787;53.364;-1.480;2023-12-14T04:38:08;3.70;99.90
21259;DHT22;10787;53.364;-1.480;2023-12-14T04:40:52;3.70;99.90
21259;DHT22;10787;53.364;-1.480;2023-12-14T04:43:36;3.70;99.90
21259;DHT22;10787;53.364;-1.480;2023-12-14T04:46:20;3.70;99.90
21259;DHT22;10787;53.364;-1.480;2023-12-14T04:49:05;3.70;99.90
21259;DHT22;10787;53.364;-1.480;2023-12-14T04:51:49;3.80;99.90
21259;DHT22;10787;53.364;-1.480;2023-12-14T04:54:34;3.70;99.90
21259;DHT22;10787;53.364;-1.480;2023-12-14T04:57:22;3.80;99.90
21259;DHT22;10787;53.364;-1.480;2023-12-14T05:00:06;3.70;99.90
21259;DHT22;10787;53.364;-1.480;2023-12-14T05:02:51;3.70;99.90
21259;DHT22;10787;53.364;-1.480;2023-12-14T05:05:36;3.70;99.90
21259;DHT22;10787;53.364;-1.480;2023-12-14T05:08:20;3.60;99.90
21259;DHT22;10787;53.364;-1.480;2023-12-14T05:11:04;3.60;99.90
21259;DHT22;10787;53.364;-1.480;2023-12-14T05:13:49;3.60;99.90
21259;DHT22;10787;53.364;-1.480;2023-12-14T05:16:33;3.50;99.90
21259;DHT22;10787;53.364;-1.480;2023-12-14T05:19:18;3.40;99.90
21259;DHT22;10787;53.364;-1.480;2023-12-14T05:22:02;3.40;99.90
21259;DHT22;10787;53.364;-1.480;2023-12-14T05:24:47;3.40;99.90
21259;DHT22;10787;53.364;-1.480;2023-12-14T05:27:32;3.40;99.90
21259;DHT22;10787;53.364;-1.480;2023-12-14T05:30:16;3.30;99.90
21259;DHT22;10787;53.364;-1.480;2023-12-14T05:33:00;3.30;99.90
21259;DHT22;10787;53.364;-1.480;2023-12-14T05:35:45;3.30;99.90
21259;DHT22;10787;53.364;-1.480;2023-12-14T05:38:31;3.30;99.90
21259;DHT22;10787;53.364;-1.480;2023-12-14T05:41:15;3.30;99.90
21259;DHT22;10787;53.364;-1.480;2023-12-14T05:43:59;3.30;99.90
21259;DHT22;10787;53.364;-1.480;2023-12-14T05:46:43;3.30;99.90
21259;DHT22;10787;53.364;-1.480;2023-12-14T05:49:28;3.30;99.90
21259;DHT22;10787;53.364;-1.480;2023-12-14T05:52:12;3.30;99.90
21259;DHT22;10787;53.364;-1.480;2023-12-14T05:54:56;3.40;99.90
21259;DHT22;10787;53.364;-1.480;2023-12-14T05:57:40;3.40;99.90
21259;DHT22;10787;53.364;-1.480;2023-12-14T06:00:24;3.50;99.90
21259;DHT22;10787;53.364;-1.480;2023-12-14T06:03:09;3.50;99.90
21259;DHT22;10787;53.364;-1.480;2023-12-14T06:05:53;3.50;99.90
21259;DHT22;10787;53.364;-1.480;2023-12-14T06:08:37;3.60;99.90
21259;DHT22;10787;53.364;-1.480;2023-12-14T06:11:22;3.60;99.90
21259;DHT22;10787;53.364;-1.480;2023-12-14T06:14:06;3.60;99.90
21259;DHT22;10787;53.364;-1.480;2023-12-14T06:16:51;3.60;99.90
21259;DHT22;10787;53.364;-1.480;2023-12-14T06:19:35;3.50;99.90
21259;DHT22;10787;53.364;-1.480;2023-12-14T06:22:20;3.50;99.90
21259;DHT22;10787;53.364;-1.480;2023-12-14T06:25:05;3.50;99.90
21259;DHT22;10787;53.364;-1.480;2023-12-14T06:27:49;3.50;99.90
21259;DHT22;10787;53.364;-1.480;2023-12-14T06:30:34;3.60;99.90
21259;DHT22;10787;53.364;-1.480;2023-12-14T06:33:18;3.60;99.90
21259;DHT22;10787;53.364;-1.480;2023-12-14T06:36:06;3.80;99.90
21259;DHT22;10787;53.364;-1.480;2023-12-14T06:38:51;4.00;99.90
21259;DHT22;10787;53.364;-1.480;2023-12-14T06:41:35;4.10;99.90
21259;DHT22;10787;53.364;-1.480;2023-12-14T06:44:19;4.20;99.90
21259;DHT22;10787;53.364;-1.480;2023-12-14T06:47:04;4.30;99.90
21259;DHT22;10787;53.364;-1.480;2023-12-14T06:49:48;4.20;99.90
21259;DHT22;10787;53.364;-1.480;2023-12-14T06:52:32;4.20;99.90
21259;DHT22;10787;53.364;-1.480;2023-12-14T06:55:16;4.20;99.90
21259;DHT22;10787;53.364;-1.480;2023-12-14T06:58:00;4.10;99.90
21259;DHT22;10787;53.364;-1.480;2023-12-14T07:00:44;4.20;99.90
21259;DHT22;10787;53.364;-1.480;2023-12-14T07:03:29;4.10;99.90
21259;DHT22;10787;53.364;-1.480;2023-12-14T07:06:14;4.10;99.90
21259;DHT22;10787;53.364;-1.480;2023-12-14T07:08:59;4.20;99.90
21259;DHT22;10787;53.364;-1.480;2023-12-14T07:11:43;4.20;99.90
21259;DHT22;10787;53.364;-1.480;2023-12-14T07:14:27;4.20;99.90
21259;DHT22;10787;53.364;-1.480;2023-12-14T07:17:11;4.20;99.90
21259;DHT22;10787;53.364;-1.480;2023-12-14T07:19:55;4.20;99.90
21259;DHT22;10787;53.364;-1.480;2023-12-14T07:22:40;4.20;99.90
21259;DHT22;10787;53.364;-1.480;2023-12-14T07:25:23;4.10;99.90
21259;DHT22;10787;53.364;-1.480;2023-12-14T07:28:08;4.10;99.90
21259;DHT22;10787;53.364;-1.480;2023-12-14T07:30:52;4.10;99.90
21259;DHT22;10787;53.364;-1.480;2023-12-14T07:33:37;4.00;99.90
21259;DHT22;10787;53.364;-1.480;2023-12-14T07:36:21;4.00;99.90
21259;DHT22;10787;53.364;-1.480;2023-12-14T07:39:06;4.00;99.90
21259;DHT22;10787;53.364;-1.480;2023-12-14T07:41:53;3.90;99.90
21259;DHT22;10787;53.364;-1.480;2023-12-14T07:44:37;3.90;99.90
21259;DHT22;10787;53.364;-1.480;2023-12-14T07:47:21;3.90;99.90
21259;DHT22;10787;53.364;-1.480;2023-12-14T07:50:06;3.90;99.90
21259;DHT22;10787;53.364;-1.480;2023-12-14T07:52:50;3.90;99.90
21259;DHT22;10787;53.364;-1.480;2023-12-14T07:55:34;3.90;99.90
21259;DHT22;10787;53.364;-1.480;2023-12-14T07:58:19;3.90;99.90
21259;DHT22;10787;53.364;-1.480;2023-12-14T08:01:03;3.90;99.90
21259;DHT22;10787;53.364;-1.480;2023-12-14T08:03:48;3.90;99.90
21259;DHT22;10787;53.364;-1.480;2023-12-14T08:06:32;3.90;99.90
21259;DHT22;10787;53.364;-1.480;2023-12-14T08:09:16;3.80;99.90
21259;DHT22;10787;53.364;-1.480;2023-12-14T08:12:00;3.80;99.90
21259;DHT22;10787;53.364;-1.480;2023-12-14T08:14:44;3.80;99.90
21259;DHT22;10787;53.364;-1.480;2023-12-14T08:17:28;3.80;99.90
21259;DHT22;10787;53.364;-1.480;2023-12-14T08:20:13;3.90;99.90
21259;DHT22;10787;53.364;-1.480;2023-12-14T08:22:58;3.90;99.90
21259;DHT22;10787;53.364;-1.480;2023-12-14T08:25:42;4.00;99.90
21259;DHT22;10787;53.364;-1.480;2023-12-14T08:28:26;4.10;99.90
21259;DHT22;10787;53.364;-1.480;2023-12-14T08:31:10;4.10;99.90
21259;DHT22;10787;53.364;-1.480;2023-12-14T08:33:55;4.20;99.90
21259;DHT22;10787;53.364;-1.480;2023-12-14T08:36:40;4.20;99.90
21259;DHT22;10787;53.364;-1.480;2023-12-14T08:39:24;4.20;99.90
21259;DHT22;10787;53.364;-1.480;2023-12-14T08:42:12;4.30;99.90
21259;DHT22;10787;53.364;-1.480;2023-12-14T08:44:56;4.30;99.90
21259;DHT22;10787;53.364;-1.480;2023-12-14T08:47:41;4.40;99.90
21259;DHT22;10787;53.364;-1.480;2023-12-14T08:50:25;4.50;99.90
21259;DHT22;10787;53.364;-1.480;2023-12-14T08:53:12;4.50;99.90
21259;DHT22;10787;53.364;-1.480;2023-12-14T08:55:56;4.50;99.90
21259;DHT22;10787;53.364;-1.480;2023-12-14T08:58:40;4.50;99.90
21259;DHT22;10787;53.364;-1.480;2023-12-14T09:01:25;4.50;99.90
21259;DHT22;10787;53.364;-1.480;2023-12-14T09:04:09;4.40;99.90
21259;DHT22;10787;53.364;-1.480;2023-12-14T09:06:53;4.40;99.90
21259;DHT22;10787;53.364;-1.480;2023-12-14T09:09:37;4.40;99.90
21259;DHT22;10787;53.364;-1.480;2023-12-14T09:12:21;4.40;99.90
21259;DHT22;10787;53.364;-1.480;2023-12-14T09:15:06;4.30;99.90
21259;DHT22;10787;53.364;-1.480;2023-12-14T09:17:51;4.40;99.90
21259;DHT22;10787;53.364;-1.480;2023-12-14T09:20:35;4.40;99.90
21259;DHT22;10787;53.364;-1.480;2023-12-14T09:23:21;4.40;99.90
21259;DHT22;10787;53.364;-1.480;2023-12-14T09:26:06;4.50;99.90
21259;DHT22;10787;53.364;-1.480;2023-12-14T09:28:50;4.60;99.90
21259;DHT22;10787;53.364;-1.480;2023-12-14T09:31:34;4.70;99.90
21259;DHT22;10787;53.364;-1.480;2023-12-14T09:34:18;4.80;99.90
21259;DHT22;10787;53.364;-1.480;2023-12-14T09:37:02;4.90;99.90
21259;DHT22;10787;53.364;-1.480;2023-12-14T09:39:47;5.00;99.90
21259;DHT22;10787;53.364;-1.480;2023-12-14T09:42:37;5.10;99.90
21259;DHT22;10787;53.364;-1.480;2023-12-14T09:45:28;5.30;99.90
21259;DHT22;10787;53.364;-1.480;2023-12-14T09:48:13;5.50;99.90
21259;DHT22;10787;53.364;-1.480;2023-12-14T09:50:59;5.60;99.90
21259;DHT22;10787;53.364;-1.480;2023-12-14T09:53:43;5.70;99.90
21259;DHT22;10787;53.364;-1.480;2023-12-14T09:56:27;5.90;99.90
21259;DHT22;10787;53.364;-1.480;2023-12-14T09:59:12;5.90;99.90
21259;DHT22;10787;53.364;-1.480;2023-12-14T10:02:10;5.90;99.90
21259;DHT22;10787;53.364;-1.480;2023-12-14T10:04:55;6.00;99.90
21259;DHT22;10787;53.364;-1.480;2023-12-14T10:07:41;6.00;99.90
21259;DHT22;10787;53.364;-1.480;2023-12-14T10:10:29;6.00;99.90
21259;DHT22;10787;53.364;-1.480;2023-12-14T10:13:13;6.10;99.90
21259;DHT22;10787;53.364;-1.480;2023-12-14T10:15:58;6.20;99.90
21259;DHT22;10787;53.364;-1.480;2023-12-14T10:18:43;6.30;99.90
21259;DHT22;10787;53.364;-1.480;2023-12-14T10:21:28;6.40;99.90
21259;DHT22;10787;53.364;-1.480;2023-12-14T10:24:13;6.50;99.90
21259;DHT22;10787;53.364;-1.480;2023-12-14T10:26:58;6.60;99.90
21259;DHT22;10787;53.364;-1.480;2023-12-14T10:29:42;6.70;99.90
21259;DHT22;10787;53.364;-1.480;2023-12-14T10:32:29;6.90;99.90
21259;DHT22;10787;53.364;-1.480;2023-12-14T10:35:13;7.10;99.90
21259;DHT22;10787;53.364;-1.480;2023-12-14T10:38:04;7.10;99.90
21259;DHT22;10787;53.364;-1.480;2023-12-14T10:40:49;7.00;99.90
21259;DHT22;10787;53.364;-1.480;2023-12-14T10:43:36;6.80;99.90
21259;DHT22;10787;53.364;-1.480;2023-12-14T10:46:21;6.80;99.90
21259;DHT22;10787;53.364;-1.480;2023-12-14T10:49:06;6.90;99.90
21259;DHT22;10787;53.364;-1.480;2023-12-14T10:51:52;7.00;99.90
21259;DHT22;10787;53.364;-1.480;2023-12-14T10:54:40;7.20;99.90
21259;DHT22;10787;53.364;-1.480;2023-12-14T10:57:25;7.20;99.90
21259;DHT22;10787;53.364;-1.480;2023-12-14T11:00:10;7.10;99.90
21259;DHT22;10787;53.364;-1.480;2023-12-14T11:02:54;7.10;99.90
21259;DHT22;10787;53.364;-1.480;2023-12-14T11:05:40;7.10;99.90
21259;DHT22;10787;53.364;-1.480;2023-12-14T11:08:24;7.10;99.90
21259;DHT22;10787;53.364;-1.480;2023-12-14T11:11:09;7.20;99.90
21259;DHT22;10787;53.364;-1.480;2023-12-14T11:13:54;7.20;99.90
21259;DHT22;10787;53.364;-1.480;2023-12-14T11:16:39;7.20;99.90
21259;DHT22;10787;53.364;-1.480;2023-12-14T11:19:32;7.30;99.90
21259;DHT22;10787;53.364;-1.480;2023-12-14T11:22:26;7.30;99.90
21259;DHT22;10787;53.364;-1.480;2023-12-14T11:25:11;7.40;99.90
21259;DHT22;10787;53.364;-1.480;2023-12-14T11:28:03;7.60;99.90
21259;DHT22;10787;53.364;-1.480;2023-12-14T11:30:48;7.60;99.90
21259;DHT22;10787;53.364;-1.480;2023-12-14T11:33:33;7.70;99.90
21259;DHT22;10787;53.364;-1.480;2023-12-14T11:36:18;7.70;99.90
21259;DHT22;10787;53.364;-1.480;2023-12-14T11:39:02;7.60;99.90
21259;DHT22;10787;53.364;-1.480;2023-12-14T11:42:02;7.60;99.90
21259;DHT22;10787;53.364;-1.480;2023-12-14T11:44:47;7.60;99.90
21259;DHT22;10787;53.364;-1.480;2023-12-14T11:47:32;7.40;99.90
21259;DHT22;10787;53.364;-1.480;2023-12-14T11:50:16;7.40;99.90
21259;DHT22;10787;53.364;-1.480;2023-12-14T11:53:01;7.50;99.90
21259;DHT22;10787;53.364;-1.480;2023-12-14T11:55:47;7.60;99.90
21259;DHT22;10787;53.364;-1.480;2023-12-14T11:58:32;7.70;99.90
21259;DHT22;10787;53.364;-1.480;2023-12-14T12:01:20;7.80;99.90
21259;DHT22;10787;53.364;-1.480;2023-12-14T12:04:12;7.90;99.90
21259;DHT22;10787;53.364;-1.480;2023-12-14T12:07:04;7.90;99.90
21259;DHT22;10787;53.364;-1.480;2023-12-14T12:09:51;7.90;99.90
21259;DHT22;10787;53.364;-1.480;2023-12-14T12:12:36;7.70;99.90
21259;DHT22;10787;53.364;-1.480;2023-12-14T12:15:20;7.60;99.90
21259;DHT22;10787;53.364;-1.480;2023-12-14T12:18:06;7.60;99.90
21259;DHT22;10787;53.364;-1.480;2023-12-14T12:20:51;7.50;99.90
21259;DHT22;10787;53.364;-1.480;2023-12-14T12:23:36;7.50;99.90
21259;DHT22;10787;53.364;-1.480;2023-12-14T12:26:21;7.60;99.90
21259;DHT22;10787;53.364;-1.480;2023-12-14T12:29:05;7.60;99.90
21259;DHT22;10787;53.364;-1.480;2023-12-14T12:31:50;7.50;99.90
21259;DHT22;10787;53.364;-1.480;2023-12-14T12:34:35;7.40;99.90
21259;DHT22;10787;53.364;-1.480;2023-12-14T12:37:20;7.40;99.90
21259;DHT22;10787;53.364;-1.480;2023-12-14T12:40:05;7.40;99.90
21259;DHT22;10787;53.364;-1.480;2023-12-14T12:42:50;7.40;99.90
21259;DHT22;10787;53.364;-1.480;2023-12-14T12:45:34;7.30;99.90
21259;DHT22;10787;53.364;-1.480;2023-12-14T12:48:19;7.20;99.90
21259;DHT22;10787;53.364;-1.480;2023-12-14T12:51:03;7.20;99.90
21259;DHT22;10787;53.364;-1.480;2023-12-14T12:53:48;7.20;99.90
21259;DHT22;10787;53.364;-1.480;2023-12-14T12:56:33;7.20;99.90
21259;DHT22;10787;53.364;-1.480;2023-12-14T12:59:18;7.10;99.90
21259;DHT22;10787;53.364;-1.480;2023-12-14T13:02:02;7.10;99.90
21259;DHT22;10787;53.364;-1.480;2023-12-14T13:04:46;7.00;99.90
21259;DHT22;10787;53.364;-1.480;2023-12-14T13:07:31;7.00;99.90
21259;DHT22;10787;53.364;-1.480;2023-12-14T13:10:15;6.90;99.90
21259;DHT22;10787;53.364;-1.480;2023-12-14T13:13:02;6.90;99.90
21259;DHT22;10787;53.364;-1.480;2023-12-14T13:15:46;6.90;99.90
21259;DHT22;10787;53.364;-1.480;2023-12-14T13:18:31;7.00;99.90
21259;DHT22;10787;53.364;-1.480;2023-12-14T13:21:15;7.30;99.90
21259;DHT22;10787;53.364;-1.480;2023-12-14T13:24:00;7.90;99.90
21259;DHT22;10787;53.364;-1.480;2023-12-14T13:26:45;8.90;99.90
21259;DHT22;10787;53.364;-1.480;2023-12-14T13:29:30;9.80;99.90
21259;DHT22;10787;53.364;-1.480;2023-12-14T13:32:16;10.50;99.90
21259;DHT22;10787;53.364;-1.480;2023-12-14T13:35:00;10.80;99.90
21259;DHT22;10787;53.364;-1.480;2023-12-14T13:37:44;10.70;99.90
21259;DHT22;10787;53.364;-1.480;2023-12-14T13:40:28;10.20;99.90
21259;DHT22;10787;53.364;-1.480;2023-12-14T13:43:13;9.70;99.90
21259;DHT22;10787;53.364;-1.480;2023-12-14T13:45:58;9.20;99.90
21259;DHT22;10787;53.364;-1.480;2023-12-14T13:48:43;8.90;99.90
21259;DHT22;10787;53.364;-1.480;2023-12-14T13:51:27;8.60;99.90
21259;DHT22;10787;53.364;-1.480;2023-12-14T13:54:11;8.40;99.90
21259;DHT22;10787;53.364;-1.480;2023-12-14T13:56:56;8.30;99.90
21259;DHT22;10787;53.364;-1.480;2023-12-14T13:59:41;8.30;99.90
21259;DHT22;10787;53.364;-1.480;2023-12-14T14:02:25;8.50;99.90
21259;DHT22;10787;53.364;-1.480;2023-12-14T14:05:12;8.60;99.90
21259;DHT22;10787;53.364;-1.480;2023-12-14T14:07:57;9.30;99.90
21259;DHT22;10787;53.364;-1.480;2023-12-14T14:10:42;10.20;99.90
21259;DHT22;10787;53.364;-1.480;2023-12-14T14:13:27;10.70;99.90
21259;DHT22;10787;53.364;-1.480;2023-12-14T14:16:11;11.30;99.90
21259;DHT22;10787;53.364;-1.480;2023-12-14T14:18:55;11.70;99.90
21259;DHT22;10787;53.364;-1.480;2023-12-14T14:21:39;12.30;99.90
21259;DHT22;10787;53.364;-1.480;2023-12-14T14:24:23;13.10;99.90
21259;DHT22;10787;53.364;-1.480;2023-12-14T14:27:08;13.30;99.90
21259;DHT22;10787;53.364;-1.480;2023-12-14T14:29:53;12.90;99.90
21259;DHT22;10787;53.364;-1.480;2023-12-14T14:32:39;12.50;99.90
21259;DHT22;10787;53.364;-1.480;2023-12-14T14:35:23;12.00;99.90
21259;DHT22;10787;53.364;-1.480;2023-12-14T14:38:07;11.60;99.90
21259;DHT22;10787;53.364;-1.480;2023-12-14T14:40:52;11.10;99.90
21259;DHT22;10787;53.364;-1.480;2023-12-14T14:43:36;10.60;99.90
21259;DHT22;10787;53.364;-1.480;2023-12-14T14:46:20;10.20;99.90
21259;DHT22;10787;53.364;-1.480;2023-12-14T14:49:04;9.80;99.90
21259;DHT22;10787;53.364;-1.480;2023-12-14T14:51:49;9.50;99.90
21259;DHT22;10787;53.364;-1.480;2023-12-14T14:54:33;9.30;99.90
21259;DHT22;10787;53.364;-1.480;2023-12-14T14:57:17;9.10;99.90
21259;DHT22;10787;53.364;-1.480;2023-12-14T15:00:01;9.00;99.90
21259;DHT22;10787;53.364;-1.480;2023-12-14T15:02:46;8.90;99.90
21259;DHT22;10787;53.364;-1.480;2023-12-14T15:05:30;8.80;99.90
21259;DHT22;10787;53.364;-1.480;2023-12-14T15:08:15;8.70;99.90
21259;DHT22;10787;53.364;-1.480;2023-12-14T15:10:59;8.60;99.90
21259;DHT22;10787;53.364;-1.480;2023-12-14T15:13:43;8.50;99.90
21259;DHT22;10787;53.364;-1.480;2023-12-14T15:16:27;8.50;99.90
21259;DHT22;10787;53.364;-1.480;2023-12-14T15:19:12;8.40;99.90
21259;DHT22;10787;53.364;-1.480;2023-12-14T15:21:56;8.40;99.90
21259;DHT22;10787;53.364;-1.480;2023-12-14T15:24:40;8.30;99.90
21259;DHT22;10787;53.364;-1.480;2023-12-14T15:27:25;8.30;99.90
21259;DHT22;10787;53.364;-1.480;2023-12-14T15:30:10;8.30;99.90
21259;DHT22;10787;53.364;-1.480;2023-12-14T15:32:55;8.30;99.90
21259;DHT22;10787;53.364;-1.480;2023-12-14T15:35:40;8.30;99.90
21259;DHT22;10787;53.364;-1.480;2023-12-14T15:38:24;8.20;99.90
21259;DHT22;10787;53.364;-1.480;2023-12-14T15:41:09;8.20;99.90
21259;DHT22;10787;53.364;-1.480;2023-12-14T15:43:53;8.20;99.90
21259;DHT22;10787;53.364;-1.480;2023-12-14T15:46:38;8.20;99.90
21259;DHT22;10787;53.364;-1.480;2023-12-14T15:49:22;8.10;99.90
21259;DHT22;10787;53.364;-1.480;2023-12-14T15:52:06;8.10;99.90
21259;DHT22;10787;53.364;-1.480;2023-12-14T15:54:50;8.10;99.90
21259;DHT22;10787;53.364;-1.480;2023-12-14T15:57:34;8.00;99.90
21259;DHT22;10787;53.364;-1.480;2023-12-14T16:00:18;8.00;99.90
21259;DHT22;10787;53.364;-1.480;2023-12-14T16:03:03;8.00;99.90
21259;DHT22;10787;53.364;-1.480;2023-12-14T16:05:48;8.00;99.90
21259;DHT22;10787;53.364;-1.480;2023-12-14T16:08:32;7.90;99.90
21259;DHT22;10787;53.364;-1.480;2023-12-14T16:11:16;7.90;99.90
21259;DHT22;10787;53.364;-1.480;2023-12-14T16:14:00;7.90;99.90
21259;DHT22;10787;53.364;-1.480;2023-12-14T16:16:45;7.90;99.90
21259;DHT22;10787;53.364;-1.480;2023-12-14T16:19:29;7.90;99.90
21259;DHT22;10787;53.364;-1.480;2023-12-14T16:22:13;7.90;99.90
21259;DHT22;10787;53.364;-1.480;2023-12-14T16:24:57;7.80;99.90
21259;DHT22;10787;53.364;-1.480;2023-12-14T16:27:41;7.80;99.90
21259;DHT22;10787;53.364;-1.480;2023-12-14T16:30:26;7.80;99.90
21259;DHT22;10787;53.364;-1.480;2023-12-14T16:33:10;7.80;99.90
21259;DHT22;10787;53.364;-1.480;2023-12-14T16:35:54;7.70;99.90
21259;DHT22;10787;53.364;-1.480;2023-12-14T16:38:39;7.70;99.90
21259;DHT22;10787;53.364;-1.480;2023-12-14T16:41:23;7.80;99.90
21259;DHT22;10787;53.364;-1.480;2023-12-14T16:44:08;7.70;99.90
21259;DHT22;10787;53.364;-1.480;2023-12-14T16:46:52;7.70;99.90
21259;DHT22;10787;53.364;-1.480;2023-12-14T16:49:37;7.70;99.90
21259;DHT22;10787;53.364;-1.480;2023-12-14T16:52:21;7.70;99.90
21259;DHT22;10787;53.364;-1.480;2023-12-14T16:55:06;7.80;99.90
21259;DHT22;10787;53.364;-1.480;2023-12-14T16:57:51;7.80;99.90
21259;DHT22;10787;53.364;-1.480;2023-12-14T17:00:35;7.70;99.90
21259;DHT22;10787;53.364;-1.480;2023-12-14T17:03:20;7.70;99.90
21259;DHT22;10787;53.364;-1.480;2023-12-14T17:06:04;7.70;99.90
21259;DHT22;10787;53.364;-1.480;2023-12-14T17:08:54;7.70;99.90
21259;DHT22;10787;53.364;-1.480;2023-12-14T17:11:39;7.70;99.90
21259;DHT22;10787;53.364;-1.480;2023-12-14T17:14:23;7.70;99.90
21259;DHT22;10787;53.364;-1.480;2023-12-14T17:17:07;7.70;99.90
21259;DHT22;10787;53.364;-1.480;2023-12-14T17:19:52;7.60;99.90